createdAt,value
2023-01-11T00:01:39.000Z,10.25
2023-01-11T00:03:55.000Z,10.7
2023-01-11T00:06:22.000Z,10.18
2023-01-11T00:08:47.000Z,11.6
2023-01-11T00:11:15.000Z,12.1
2023-01-11T00:13:39.000Z,11.93
2023-01-11T00:16:04.000Z,11.37
2023-01-11T00:18:30.000Z,11
2023-01-11T00:20:56.000Z,11.38
2023-01-11T00:23:22.000Z,11.53
2023-01-11T00:25:48.000Z,11.75
2023-01-11T00:28:15.000Z,10.75
2023-01-11T00:31:18.000Z,11.07
2023-01-11T00:33:10.000Z,10.93
2023-01-11T00:35:31.000Z,11.2
2023-01-11T00:37:56.000Z,10.75
2023-01-11T00:40:22.000Z,11.25
2023-01-11T00:42:47.000Z,11.17
2023-01-11T00:45:14.000Z,11.07
2023-01-11T00:47:40.000Z,12.03
2023-01-11T00:50:07.000Z,11.75
2023-01-11T00:52:31.000Z,11.68
2023-01-11T00:54:57.000Z,11.55
2023-01-11T00:57:23.000Z,10.93
2023-01-11T00:59:51.000Z,12.75
2023-01-11T01:02:15.000Z,13.93
2023-01-11T01:04:41.000Z,12.2
2023-01-11T01:07:07.000Z,11.95
2023-01-11T01:09:34.000Z,12.77
2023-01-11T01:11:58.000Z,12.4
2023-01-11T01:14:23.000Z,13.17
2023-01-11T01:16:49.000Z,14.78
2023-01-11T01:19:15.000Z,14.87
2023-01-11T01:21:42.000Z,14.47
2023-01-11T01:24:07.000Z,15.53
2023-01-11T01:26:32.000Z,18
2023-01-11T01:28:58.000Z,17.43
2023-01-11T01:31:24.000Z,16
2023-01-11T01:33:49.000Z,18.42
2023-01-11T01:36:15.000Z,17.87
2023-01-11T01:38:41.000Z,19.92
2023-01-11T01:41:07.000Z,22.03
2023-01-11T01:43:33.000Z,21.8
2023-01-11T01:45:58.000Z,20.75
2023-01-11T01:48:25.000Z,22.07
2023-01-11T01:50:50.000Z,24.12
2023-01-11T01:53:17.000Z,22.3
2023-01-11T01:55:41.000Z,23.17
2023-01-11T01:58:07.000Z,21.6
2023-01-11T02:00:46.000Z,22.23
2023-01-11T02:02:58.000Z,21.9
2023-01-11T02:05:25.000Z,20.1
2023-01-11T02:07:50.000Z,20.55
2023-01-11T02:10:16.000Z,19.25
2023-01-11T02:12:42.000Z,20
2023-01-11T02:15:09.000Z,17.43
2023-01-11T02:17:33.000Z,17.23
2023-01-11T02:20:01.000Z,17.95
2023-01-11T02:22:25.000Z,17.52
2023-01-11T02:24:51.000Z,16.6
2023-01-11T02:27:16.000Z,16.9
2023-01-11T02:29:42.000Z,17.37
2023-01-11T02:32:07.000Z,17.52
2023-01-11T02:34:34.000Z,12.75
2023-01-11T02:36:59.000Z,11.57
2023-01-11T02:39:24.000Z,10.47
2023-01-11T02:41:50.000Z,12.13
2023-01-11T02:44:16.000Z,12.4
2023-01-11T02:46:42.000Z,11.73
2023-01-11T02:49:07.000Z,13.23
2023-01-11T02:51:34.000Z,12.77
2023-01-11T02:53:59.000Z,12.75
2023-01-11T02:56:25.000Z,12.95
2023-01-11T02:58:50.000Z,12.07
2023-01-11T03:01:22.000Z,12.2
2023-01-11T03:03:42.000Z,11.63
2023-01-11T03:06:09.000Z,11.7
2023-01-11T03:08:33.000Z,12.33
2023-01-11T03:11:01.000Z,12
2023-01-11T03:13:25.000Z,12.47
2023-01-11T03:15:51.000Z,12.87
2023-01-11T03:18:17.000Z,12.37
2023-01-11T03:20:44.000Z,13.1
2023-01-11T03:23:08.000Z,12.53
2023-01-11T03:25:34.000Z,12.57
2023-01-11T03:27:59.000Z,12.5
2023-01-11T03:30:25.000Z,12.4
2023-01-11T03:32:51.000Z,12.33
2023-01-11T03:35:17.000Z,12.1
2023-01-11T03:37:43.000Z,11.67
2023-01-11T03:40:11.000Z,11.25
2023-01-11T03:42:35.000Z,11.12
2023-01-11T03:44:59.000Z,11.3
2023-01-11T03:47:25.000Z,11.07
2023-01-11T03:49:52.000Z,11.6
2023-01-11T03:52:18.000Z,12.13
2023-01-11T03:54:43.000Z,11.2
2023-01-11T03:57:09.000Z,11.4
2023-01-11T03:59:36.000Z,10.93
2023-01-11T04:02:05.000Z,9.83
2023-01-11T04:04:26.000Z,10.4
2023-01-11T04:06:52.000Z,10.27
2023-01-11T04:09:18.000Z,10.3
2023-01-11T04:11:45.000Z,9.95
2023-01-11T04:14:11.000Z,10.13
2023-01-11T04:16:36.000Z,10.28
2023-01-11T04:19:01.000Z,10.8
2023-01-11T04:21:26.000Z,11
2023-01-11T04:23:54.000Z,10.93
2023-01-11T04:26:19.000Z,9.7
2023-01-11T04:28:45.000Z,9.83
2023-01-11T04:31:10.000Z,10.03
2023-01-11T04:33:35.000Z,12.65
2023-01-11T04:36:01.000Z,42.73
2023-01-11T04:38:27.000Z,14.67
2023-01-11T04:40:54.000Z,11.9
2023-01-11T04:43:19.000Z,12.03
2023-01-11T04:45:45.000Z,17.8
2023-01-11T04:48:11.000Z,13.4
2023-01-11T04:50:36.000Z,11.33
2023-01-11T04:53:01.000Z,10.65
2023-01-11T04:55:27.000Z,9.67
2023-01-11T04:57:53.000Z,10.23
2023-01-11T05:00:23.000Z,8.48
2023-01-11T05:02:44.000Z,7.25
2023-01-11T05:05:11.000Z,6.55
2023-01-11T05:07:36.000Z,7.03
2023-01-11T05:10:01.000Z,7.4
2023-01-11T05:12:28.000Z,5.62
2023-01-11T05:14:53.000Z,5.4
2023-01-11T05:17:19.000Z,5.57
2023-01-11T05:19:44.000Z,4.9
2023-01-11T05:22:10.000Z,4.85
2023-01-11T05:24:36.000Z,5.4
2023-01-11T05:27:02.000Z,5.27
2023-01-11T05:29:28.000Z,5.5
2023-01-11T05:31:53.000Z,5.2
2023-01-11T05:34:19.000Z,5.72
2023-01-11T05:36:44.000Z,5.47
2023-01-11T05:39:10.000Z,5.77
2023-01-11T05:41:36.000Z,6.12
2023-01-11T05:44:02.000Z,6.37
2023-01-11T05:46:28.000Z,6
2023-01-11T05:48:53.000Z,6.47
2023-01-11T05:51:20.000Z,6.17
2023-01-11T05:53:45.000Z,6.7
2023-01-11T05:56:10.000Z,6
2023-01-11T05:58:37.000Z,6.2
2023-01-11T06:01:32.000Z,5.8
2023-01-11T06:03:46.000Z,6.17
2023-01-11T06:05:54.000Z,5.37
2023-01-11T06:08:19.000Z,4.73
2023-01-11T06:10:44.000Z,4.63
2023-01-11T06:13:11.000Z,4.2
2023-01-11T06:15:37.000Z,3.9
2023-01-11T06:18:02.000Z,3.5
2023-01-11T06:20:28.000Z,3.77
2023-01-11T06:22:54.000Z,3.55
2023-01-11T06:25:21.000Z,3.8
2023-01-11T06:27:47.000Z,3.57
2023-01-11T06:30:14.000Z,4
2023-01-11T06:32:38.000Z,4.2
2023-01-11T06:35:04.000Z,4.15
2023-01-11T06:37:30.000Z,4.5
2023-01-11T06:39:55.000Z,4.73
2023-01-11T06:42:21.000Z,4.5
2023-01-11T06:44:47.000Z,4.7
2023-01-11T06:47:14.000Z,4.47
2023-01-11T06:49:40.000Z,4.7
2023-01-11T06:52:05.000Z,4.6
2023-01-11T06:54:30.000Z,4.7
2023-01-11T06:56:56.000Z,4.5
2023-01-11T06:59:24.000Z,5.12
2023-01-11T07:02:04.000Z,4.65
2023-01-11T07:04:14.000Z,4.58
2023-01-11T07:06:40.000Z,4.75
2023-01-11T07:09:05.000Z,5.8
2023-01-11T07:11:31.000Z,5.7
2023-01-11T07:13:56.000Z,5.97
2023-01-11T07:16:23.000Z,6.5
2023-01-11T07:18:48.000Z,6.6
2023-01-11T07:21:14.000Z,6.8
2023-01-11T07:23:40.000Z,6.53
2023-01-11T07:26:06.000Z,6.92
2023-01-11T07:28:32.000Z,7.33
2023-01-11T07:30:57.000Z,7.1
2023-01-11T07:33:23.000Z,7.1
2023-01-11T07:35:51.000Z,6.97
2023-01-11T07:38:16.000Z,6.9
2023-01-11T07:40:42.000Z,6.9
2023-01-11T07:43:08.000Z,7.23
2023-01-11T07:45:34.000Z,6.93
2023-01-11T07:47:59.000Z,6.9
2023-01-11T07:50:27.000Z,7.1
2023-01-11T07:52:51.000Z,6.85
2023-01-11T07:55:17.000Z,6.12
2023-01-11T07:57:43.000Z,6.2
2023-01-11T08:00:17.000Z,5.8
2023-01-11T08:02:35.000Z,5.7
2023-01-11T08:05:01.000Z,5.9
2023-01-11T08:07:27.000Z,6.2
2023-01-11T08:09:53.000Z,5.97
2023-01-11T08:12:18.000Z,5.1
2023-01-11T08:14:44.000Z,5.25
2023-01-11T08:17:10.000Z,4.92
2023-01-11T08:19:36.000Z,4.8
2023-01-11T08:22:02.000Z,4.75
2023-01-11T08:24:28.000Z,4.6
2023-01-11T08:26:53.000Z,4.47
2023-01-11T08:29:19.000Z,4.73
2023-01-11T08:31:45.000Z,4.8
2023-01-11T08:34:10.000Z,5.03
2023-01-11T08:36:36.000Z,5.55
2023-01-11T08:39:01.000Z,5.4
2023-01-11T08:41:30.000Z,5.87
2023-01-11T08:43:54.000Z,5.87
2023-01-11T08:46:19.000Z,5.9
2023-01-11T08:48:45.000Z,5.8
2023-01-11T08:51:11.000Z,6.23
2023-01-11T08:53:37.000Z,7.27
2023-01-11T08:56:02.000Z,7.15
2023-01-11T08:58:27.000Z,12.7
2023-01-11T09:00:53.000Z,10.1
2023-01-11T09:03:19.000Z,7.8
2023-01-11T09:05:45.000Z,8.65
2023-01-11T09:08:11.000Z,7.7
2023-01-11T09:10:37.000Z,8.67
2023-01-11T09:13:02.000Z,10.83
2023-01-11T09:15:28.000Z,10.7
2023-01-11T09:17:53.000Z,22.17
2023-01-11T09:20:19.000Z,14.8
2023-01-11T09:22:45.000Z,15.95
2023-01-11T09:25:10.000Z,34
2023-01-11T09:27:36.000Z,29.13
2023-01-11T09:30:02.000Z,35.03
2023-01-11T09:32:27.000Z,43.6
2023-01-11T09:34:55.000Z,33.85
2023-01-11T09:37:20.000Z,25.9
2023-01-11T09:39:47.000Z,33.42
2023-01-11T09:42:12.000Z,29.15
2023-01-11T09:44:38.000Z,26.37
2023-01-11T09:47:03.000Z,27.5
2023-01-11T09:49:29.000Z,27.3
2023-01-11T09:51:55.000Z,26.43
2023-01-11T09:54:21.000Z,25.2
2023-01-11T09:56:46.000Z,24.05
2023-01-11T09:59:13.000Z,20.95
2023-01-11T10:01:46.000Z,21.3
2023-01-11T10:04:06.000Z,21.67
2023-01-11T10:06:32.000Z,22.47
2023-01-11T10:16:17.000Z,26.75
2023-01-11T10:18:41.000Z,26.75
2023-01-11T10:21:06.000Z,23.4
2023-01-11T10:23:32.000Z,22.32
2023-01-11T10:25:59.000Z,23.12
2023-01-11T10:28:24.000Z,22.6
2023-01-11T10:30:51.000Z,21.03
2023-01-11T10:33:17.000Z,21.4
2023-01-11T10:35:43.000Z,18.77
2023-01-11T10:38:10.000Z,18.1
2023-01-11T10:40:34.000Z,18.03
2023-01-11T10:43:00.000Z,18.73
2023-01-11T10:45:26.000Z,17
2023-01-11T10:47:52.000Z,18.9
2023-01-11T10:50:18.000Z,16.23
2023-01-11T10:52:45.000Z,13.18
2023-01-11T10:55:12.000Z,13.87
2023-01-11T10:57:34.000Z,13
2023-01-11T11:00:01.000Z,14.55
2023-01-11T11:02:27.000Z,14.85
2023-01-11T11:04:53.000Z,15.83
2023-01-11T11:07:18.000Z,15.73
2023-01-11T11:09:43.000Z,14.83
2023-01-11T11:12:11.000Z,19.05
2023-01-11T11:14:48.000Z,19.92
2023-01-11T11:17:01.000Z,19.42
2023-01-11T11:19:27.000Z,18.82
2023-01-11T11:21:53.000Z,19.47
2023-01-11T11:24:20.000Z,19.33
2023-01-11T11:26:45.000Z,19.03
2023-01-11T11:29:10.000Z,20.72
2023-01-11T11:31:36.000Z,20.35
2023-01-11T11:34:02.000Z,21.57
2023-01-11T11:36:28.000Z,22.65
2023-01-11T11:38:54.000Z,23.32
2023-01-11T11:41:21.000Z,24.87
2023-01-11T11:43:47.000Z,24.7
2023-01-11T11:46:13.000Z,25.57
2023-01-11T11:48:39.000Z,26.93
2023-01-11T11:51:05.000Z,26.77
2023-01-11T11:53:31.000Z,27
2023-01-11T11:55:57.000Z,28.13
2023-01-11T11:58:24.000Z,27.5
2023-01-11T12:01:23.000Z,26.67
2023-01-11T12:03:58.000Z,27.3
2023-01-11T12:05:44.000Z,28.07
2023-01-11T12:08:11.000Z,28.23
2023-01-11T12:10:36.000Z,27.5
2023-01-11T12:13:03.000Z,28.8
2023-01-11T12:15:29.000Z,28.57
2023-01-11T12:17:54.000Z,28.4
2023-01-11T12:20:28.000Z,28.07
2023-01-11T12:22:46.000Z,29.8
2023-01-11T12:25:12.000Z,27.42
2023-01-11T12:27:39.000Z,27.85
2023-01-11T12:30:08.000Z,28.52
2023-01-11T12:32:32.000Z,28.87
2023-01-11T12:34:58.000Z,28.4
2023-01-11T12:37:24.000Z,28.57
2023-01-11T12:39:53.000Z,27.25
2023-01-11T12:42:19.000Z,28.4
2023-01-11T12:44:45.000Z,26.95
2023-01-11T12:47:11.000Z,27.82
2023-01-11T12:49:38.000Z,27.25
2023-01-11T12:52:05.000Z,27.52
2023-01-11T12:54:36.000Z,27.77
2023-01-11T12:57:02.000Z,27.63
2023-01-11T12:59:27.000Z,27.73
2023-01-11T13:02:15.000Z,28.17
2023-01-11T13:04:14.000Z,27.87
2023-01-11T13:06:41.000Z,27.35
2023-01-11T13:09:07.000Z,27.77
2023-01-11T13:11:32.000Z,28.02
2023-01-11T13:13:59.000Z,26.93
2023-01-11T13:16:25.000Z,25.87
2023-01-11T13:19:05.000Z,26.95
2023-01-11T13:21:22.000Z,25.92
2023-01-11T13:23:47.000Z,27.02
2023-01-11T13:26:12.000Z,25.65
2023-01-11T13:28:39.000Z,25.95
2023-01-11T13:31:08.000Z,25.62
2023-01-11T13:33:32.000Z,25.62
2023-01-11T13:36:00.000Z,27.52
2023-01-11T13:38:30.000Z,26.07
2023-01-11T13:41:11.000Z,27.48
2023-01-11T13:44:05.000Z,25.68
2023-01-11T13:45:55.000Z,26
2023-01-11T13:48:15.000Z,28.25
2023-01-11T13:50:42.000Z,25.62
2023-01-11T13:53:08.000Z,27.1
2023-01-11T13:55:33.000Z,26.2
2023-01-11T13:58:04.000Z,26.7
2023-01-11T14:00:40.000Z,27.9
2023-01-11T14:02:59.000Z,26.57
2023-01-11T14:05:26.000Z,27.52
2023-01-11T14:07:53.000Z,27.9
2023-01-11T14:10:20.000Z,28.55
2023-01-11T14:12:48.000Z,28.57
2023-01-11T14:15:14.000Z,28.53
2023-01-11T14:17:43.000Z,29.45
2023-01-11T14:20:09.000Z,30.1
2023-01-11T14:22:35.000Z,29.52
2023-01-11T14:25:03.000Z,31.07
2023-01-11T14:27:28.000Z,31.48
2023-01-11T14:29:56.000Z,30.43
2023-01-11T14:32:22.000Z,30.43
2023-01-11T14:34:49.000Z,30.37
2023-01-11T14:37:16.000Z,31.95
2023-01-11T14:39:42.000Z,29.65
2023-01-11T14:42:10.000Z,32.45
2023-01-11T14:44:37.000Z,32.65
2023-01-11T14:47:02.000Z,31.75
2023-01-11T14:49:28.000Z,32.67
2023-01-11T14:51:54.000Z,32.5
2023-01-11T14:54:21.000Z,31.3
2023-01-11T14:56:47.000Z,32.47
2023-01-11T14:59:13.000Z,30.4
2023-01-11T15:01:49.000Z,30.2
2023-01-11T15:04:07.000Z,30.13
2023-01-11T15:06:32.000Z,32.07
2023-01-11T15:08:58.000Z,32.7
2023-01-11T15:11:27.000Z,33.13
2023-01-11T15:13:50.000Z,37
2023-01-11T15:16:17.000Z,37.78
2023-01-11T15:18:44.000Z,36.93
2023-01-11T15:21:21.000Z,33.92
2023-01-11T15:23:34.000Z,35.43
2023-01-11T15:26:00.000Z,37.3
2023-01-11T15:28:30.000Z,38.17
2023-01-11T15:30:53.000Z,36.45
2023-01-11T15:33:19.000Z,35.3
2023-01-11T15:35:45.000Z,36.17
2023-01-11T15:38:12.000Z,37.05
2023-01-11T15:40:37.000Z,36.17
2023-01-11T15:43:05.000Z,36.68
2023-01-11T15:45:30.000Z,34.27
2023-01-11T15:47:56.000Z,35.15
2023-01-11T15:50:22.000Z,34.6
2023-01-11T15:52:50.000Z,33.77
2023-01-11T15:55:15.000Z,34.6
2023-01-11T15:57:41.000Z,32.9
2023-01-11T16:00:10.000Z,32.28
2023-01-11T16:02:52.000Z,31.25
2023-01-11T16:05:00.000Z,29.57
2023-01-11T16:07:25.000Z,28.42
2023-01-11T16:09:50.000Z,27.13
2023-01-11T16:12:26.000Z,26.7
2023-01-11T16:14:44.000Z,28.05
2023-01-11T16:17:08.000Z,28.25
2023-01-11T16:19:34.000Z,28.23
2023-01-11T16:22:00.000Z,27.07
2023-01-11T16:24:25.000Z,26.23
2023-01-11T16:26:50.000Z,26.17
2023-01-11T16:29:21.000Z,25.75
2023-01-11T16:32:12.000Z,24.72
2023-01-11T16:32:14.000Z,24.72
2023-01-11T16:34:09.000Z,25.53
2023-01-11T16:36:59.000Z,25.3
2023-01-11T16:37:22.000Z,24.72
2023-01-11T16:39:00.000Z,25
2023-01-11T16:41:35.000Z,24.55
2023-01-11T16:43:51.000Z,24.7
2023-01-11T16:46:18.000Z,25.1
2023-01-11T16:48:44.000Z,24.57
2023-01-11T16:51:08.000Z,25.17
2023-01-11T16:53:36.000Z,25.93
2023-01-11T16:56:00.000Z,26
2023-01-11T16:58:29.000Z,27.07
2023-01-11T17:00:56.000Z,28.9
2023-01-11T17:03:19.000Z,29.05
2023-01-11T17:05:45.000Z,30.32
2023-01-11T17:08:10.000Z,29.75
2023-01-11T17:10:36.000Z,30.63
2023-01-11T17:13:03.000Z,30.6
2023-01-11T17:15:29.000Z,30.27
2023-01-11T17:17:56.000Z,32.1
2023-01-11T17:20:44.000Z,32.33
2023-01-11T17:23:27.000Z,33.2
2023-01-11T17:25:12.000Z,32.8
2023-01-11T17:27:44.000Z,33.33
2023-01-11T17:30:09.000Z,34.67
2023-01-11T17:32:31.000Z,37.63
2023-01-11T17:34:57.000Z,43.4
2023-01-11T17:37:23.000Z,43.97
2023-01-11T17:39:50.000Z,42.88
2023-01-11T17:42:13.000Z,42.67
2023-01-11T17:44:39.000Z,41.37
2023-01-11T17:47:05.000Z,42.4
2023-01-11T17:49:31.000Z,43.1
2023-01-11T17:51:57.000Z,42.03
2023-01-11T17:54:22.000Z,43.27
2023-01-11T17:56:48.000Z,41.57
2023-01-11T17:59:14.000Z,41.88
2023-01-11T18:01:46.000Z,41.73
2023-01-11T18:04:06.000Z,40.55
2023-01-11T18:06:31.000Z,40.6
2023-01-11T18:08:56.000Z,39.9
2023-01-11T18:11:22.000Z,40
2023-01-11T18:13:49.000Z,40.78
2023-01-11T18:16:14.000Z,39.63
2023-01-11T18:18:39.000Z,39.6
2023-01-11T18:21:11.000Z,39.95
2023-01-11T18:23:30.000Z,40.33
2023-01-11T18:25:57.000Z,40.15
2023-01-11T18:28:23.000Z,39
2023-01-11T18:30:48.000Z,38.47
2023-01-11T18:33:15.000Z,39.67
2023-01-11T18:35:41.000Z,37.67
2023-01-11T18:38:05.000Z,38.17
2023-01-11T18:40:31.000Z,37.5
2023-01-11T18:42:57.000Z,37.73
2023-01-11T18:45:23.000Z,38.85
2023-01-11T18:47:49.000Z,36.98
2023-01-11T18:50:15.000Z,36.83
2023-01-11T18:52:41.000Z,38
2023-01-11T18:55:07.000Z,37.65
2023-01-11T18:57:33.000Z,38.9
2023-01-11T18:59:58.000Z,38.8
2023-01-11T19:02:24.000Z,39.67
2023-01-11T19:04:50.000Z,37.95
2023-01-11T19:07:15.000Z,38.05
2023-01-11T19:09:42.000Z,37.73
2023-01-11T19:12:12.000Z,37.87
2023-01-11T19:14:32.000Z,37.5
2023-01-11T19:16:58.000Z,37.98
2023-01-11T19:19:28.000Z,36.9
2023-01-11T19:21:52.000Z,38.13
2023-01-11T19:24:16.000Z,38.13
2023-01-11T19:26:43.000Z,35.92
2023-01-11T19:29:08.000Z,37.13
2023-01-11T19:31:33.000Z,35.67
2023-01-11T19:33:59.000Z,36.2
2023-01-11T19:36:26.000Z,36.55
2023-01-11T19:38:51.000Z,36.2
2023-01-11T19:41:36.000Z,36.2
2023-01-11T19:43:44.000Z,39.2
2023-01-11T19:46:10.000Z,41.28
2023-01-11T19:48:35.000Z,41.8
2023-01-11T19:51:10.000Z,41.73
2023-01-11T19:53:42.000Z,39.8
2023-01-11T19:55:57.000Z,41.1
2023-01-11T19:58:18.000Z,39.3
2023-01-11T20:00:49.000Z,39.53
2023-01-11T20:03:10.000Z,38.53
2023-01-11T20:05:36.000Z,38.43
2023-01-11T20:08:01.000Z,39.9
2023-01-11T20:10:28.000Z,39.9
2023-01-11T20:12:54.000Z,41.37
2023-01-11T20:15:20.000Z,40.63
2023-01-11T20:17:45.000Z,39.43
2023-01-11T20:20:13.000Z,37
2023-01-11T20:22:36.000Z,37
2023-01-11T20:25:01.000Z,34.05
2023-01-11T20:27:29.000Z,33.8
2023-01-11T20:29:53.000Z,33.9
2023-01-11T20:32:19.000Z,32.93
2023-01-11T20:34:45.000Z,33.5
2023-01-11T20:37:10.000Z,31.2
2023-01-11T20:39:37.000Z,30.9
2023-01-11T20:42:02.000Z,30.37
2023-01-11T20:44:29.000Z,29.13
2023-01-11T20:46:54.000Z,30.17
2023-01-11T20:49:20.000Z,29.55
2023-01-11T20:51:45.000Z,29.55
2023-01-11T20:54:12.000Z,29.5
2023-01-11T20:56:39.000Z,28.27
2023-01-11T21:01:42.000Z,27.7
2023-01-11T21:03:56.000Z,27.5
2023-01-11T21:06:21.000Z,29.18
2023-01-11T21:08:48.000Z,29.67
2023-01-11T21:11:13.000Z,30.65
2023-01-11T21:13:39.000Z,31.37
2023-01-11T21:16:05.000Z,32.7
2023-01-11T21:18:30.000Z,32.2
2023-01-11T21:20:56.000Z,32.35
2023-01-11T21:23:22.000Z,32.27
2023-01-11T21:25:47.000Z,32.3
2023-01-11T21:28:14.000Z,32.55
2023-01-11T21:30:40.000Z,31.2
2023-01-11T21:33:04.000Z,30.82
2023-01-11T21:35:30.000Z,30.2
2023-01-11T21:37:56.000Z,31.9
2023-01-11T21:40:23.000Z,33.3
2023-01-11T21:42:47.000Z,35.17
2023-01-11T21:45:12.000Z,36.47
2023-01-11T21:47:39.000Z,36.8
2023-01-11T21:50:06.000Z,36.23
2023-01-11T21:52:31.000Z,36.05
2023-01-11T21:54:56.000Z,36.03
2023-01-11T21:57:21.000Z,36.03
2023-01-11T21:59:53.000Z,34.63
2023-01-11T22:02:17.000Z,35.8
2023-01-11T22:04:39.000Z,35.1
2023-01-11T22:07:05.000Z,34.8
2023-01-11T22:09:30.000Z,36.07
2023-01-11T22:11:58.000Z,34.55
2023-01-11T22:14:21.000Z,34.8
2023-01-11T22:16:47.000Z,34.6
2023-01-11T22:19:13.000Z,34.4
2023-01-11T22:21:40.000Z,33.83
2023-01-11T22:24:05.000Z,34.83
2023-01-11T22:26:31.000Z,32.78
2023-01-11T22:28:56.000Z,34.83
2023-01-11T22:31:23.000Z,35.13
2023-01-11T22:33:47.000Z,35.38
2023-01-11T22:36:13.000Z,35.23
2023-01-11T22:38:40.000Z,35.28
2023-01-11T22:41:17.000Z,34.73
2023-01-11T22:43:30.000Z,35.13
2023-01-11T22:45:56.000Z,35.15
2023-01-11T22:48:22.000Z,35.23
2023-01-11T22:50:49.000Z,34.53
2023-01-11T22:53:14.000Z,34.57
2023-01-11T22:55:39.000Z,34.75
2023-01-11T22:58:06.000Z,35.95
2023-01-11T23:00:40.000Z,36.35
2023-01-11T23:02:56.000Z,36.2
2023-01-11T23:05:23.000Z,35.63
2023-01-11T23:07:49.000Z,36.37
2023-01-11T23:10:17.000Z,36.23
2023-01-11T23:12:40.000Z,35.48
2023-01-11T23:15:06.000Z,35.5
2023-01-11T23:17:31.000Z,35.2
2023-01-11T23:19:57.000Z,35.95
2023-01-11T23:22:26.000Z,36.77
2023-01-11T23:24:49.000Z,36.93
2023-01-11T23:27:15.000Z,36.4
2023-01-11T23:30:09.000Z,36.25
2023-01-11T23:32:06.000Z,35.95
2023-01-11T23:34:33.000Z,35.55
2023-01-11T23:36:58.000Z,36.9
2023-01-11T23:39:30.000Z,36.05
2023-01-11T23:41:49.000Z,36.07
2023-01-11T23:44:15.000Z,38.17
2023-01-11T23:46:42.000Z,35.6
2023-01-11T23:49:09.000Z,37.75
2023-01-11T23:51:33.000Z,37.7
2023-01-11T23:53:59.000Z,38.5
2023-01-11T23:56:25.000Z,38.88
2023-01-11T23:58:51.000Z,38.67
